Latest Weather Observations for Coondewanna

IDW60801

Issued at 9:33 pm WST Tuesday 26 July 2016 (issued every 30 minutes, with the page automatically refreshed every 10 minutes)

About weather observations | Map of weather stations | Latest weather observations for WA | Other Formats
Station Details ID: 505051 Name: COONDEWANNA Lat: -22.96 Lon: 118.81 Height: 697.63 m
Data from the previous 72 hours. | See also: Recent months for locations in Western Australia
Date/Time
WST
Temp
°C
App
Temp
°C
Dew
Point
°C
Rel
Hum
%
Delta-T
°C
Wind Press
QNH
hPa
Press
MSL
hPa
Rain since
9am
mm
Dir  Spd
km/h
Gust
km/h
Spd
kts
Gust
kts
26/09:30pm 11.7 8.0 -3.2 35 5.9 SE 7 9 4 5 1024.1 1022.8 0.0
26/09:00pm 12.9 8.0 -3.0 33 6.4 SE 13 17 7 9 1024.1 1022.8 0.0
26/08:30pm 12.9 7.7 -3.0 33 6.4 ESE 15 15 8 8 1024.0 1022.6 0.0
26/08:00pm 13.7 8.5 -3.1 31 6.8 ESE 15 19 8 10 1023.7 1022.3 0.0
26/07:30pm 14.4 9.9 -3.4 29 7.2 E 11 15 6 8 1023.5 1022.1 0.0
26/07:00pm 16.8 10.6 -4.4 23 8.6 SE 19 24 10 13 1023.2 1021.8 0.0
26/06:30pm 17.3 11.5 -4.6 22 8.9 SE 17 22 9 12 1022.7 1021.3 0.0
26/06:00pm 17.7 11.3 -4.9 21 9.2 SE 20 33 11 18 1022.2 1020.8 0.0
26/05:30pm 18.8 11.6 -5.3 19 9.8 SE 24 33 13 18 1021.8 1020.4 0.0
26/05:00pm 19.6 11.5 -6.9 16 10.5 SE 28 39 15 21 1021.5 1020.0 0.0
26/04:30pm 20.4 12.3 -7.1 15 11.0 SE 28 39 15 21 1021.3 1019.8 0.0
26/04:00pm 20.7 12.5 -7.7 14 11.2 SE 28 39 15 21 1021.3 1019.8 0.0
26/03:30pm 21.3 12.3 -8.2 13 11.7 SE 32 43 17 23 1021.3 1019.8 0.0
26/03:00pm 21.2 12.1 -9.3 12 11.7 ESE 32 43 17 23 1021.4 1019.9 0.0
26/02:30pm 21.2 13.0 -8.3 13 11.6 ESE 28 39 15 21 1021.7 1020.3 0.0
26/02:00pm 20.8 12.9 -8.6 13 11.4 ESE 26 41 14 22 1021.7 1020.3 0.0
26/01:30pm 20.1 13.2 -6.5 16 10.7 ESE 22 33 12 18 1022.1 1020.7 0.0
26/01:00pm 19.6 12.2 -7.7 15 10.7 ESE 24 37 13 20 1022.3 1020.9 0.0
26/12:30pm 19.9 12.4 -4.4 19 10.2 ESE 26 35 14 19 1022.7 1021.3 0.0
26/12:00pm 19.2 12.1 -4.3 20 9.8 ESE 24 33 13 18 1023.2 1021.8 0.0
26/11:30am 18.1 10.3 -3.9 22 9.2 ESE 28 35 15 19 1023.5 1022.1 0.0
26/11:00am 17.1 9.8 -2.5 26 8.3 SE 26 32 14 17 1023.7 1022.3 0.0
26/10:30am 16.9 10.1 -1.7 28 8.0 E 24 32 13 17 1024.0 1022.6 0.0
26/10:00am 15.8 8.3 -1.7 30 7.4 ESE 28 35 15 19 1024.4 1023.0 0.0
26/09:30am 15.1 7.2 -1.9 31 7.2 ESE 30 41 16 22 1024.6 1023.2 0.0
26/09:00am 14.3 6.8 -1.7 33 6.7 ESE 28 35 15 19 1024.2 1022.9 0.0
26/08:30am 13.8 5.4 -1.4 35 6.4 ESE 33 46 18 25 1024.1 1022.8 0.0
26/08:27am 13.5 5.2 -1.6 35 6.3 ESE 32 46 17 25 1024.0 1022.6 0.0
26/08:00am 12.7 6.4 -0.9 39 5.7 ESE 22 28 12 15 1023.8 1022.4 0.0
26/07:30am 12.0 6.2 0.1 44 5.1 ESE 20 24 11 13 1023.6 1022.2 0.0
26/07:00am 11.4 7.1 0.8 48 4.6 ESE 13 17 7 9 1023.3 1021.9 0.0
26/06:30am 11.8 7.4 0.3 45 4.9 ESE 13 19 7 10 1023.1 1021.7 0.0
26/06:00am 11.8 7.9 0.9 47 4.7 ESE 11 15 6 8 1022.4 1021.0 0.0
26/05:30am 12.1 9.1 1.7 49 4.6 E 7 13 4 7 1022.5 1021.1 0.0
26/05:00am 12.8 9.8 2.1 48 4.8 E 7 11 4 6 1022.3 1020.9 0.0
26/04:30am 13.3 8.8 1.9 46 5.1 ESE 15 22 8 12 1021.8 1020.4 0.0
26/04:00am 13.8 8.0 2.1 45 5.3 ESE 22 30 12 16 1021.5 1020.0 0.0
26/03:30am 14.3 9.3 1.6 42 5.7 ESE 17 22 9 12 1022.0 1020.6 0.0
26/03:00am 14.6 10.9 2.2 43 5.7 SE 11 13 6 7 1022.3 1020.9 0.0
26/02:30am 14.6 10.1 2.2 43 5.7 SE 15 19 8 10 1021.9 1020.5 0.0
26/02:00am 14.8 10.8 3.0 45 5.5 ESE 13 17 7 9 1022.2 1020.8 0.0
26/01:30am 15.4 11.4 2.9 43 5.9 ESE 13 17 7 9 1022.4 1021.0 0.0
26/01:00am 15.8 11.4 2.9 42 6.0 SE 15 20 8 11 1022.6 1021.2 0.0
26/12:30am 15.6 12.3 4.3 47 5.5 ESE 11 15 6 8 1022.5 1021.1 0.0
26/12:00am 15.7 11.9 4.1 46 5.6 ESE 13 17 7 9 1022.4 1021.0 0.0
 
Date/Time
WST
Temp
°C
App
Temp
°C
Dew
Point
°C
Rel
Hum
%
Delta-T
°C
Wind Press
QNH
hPa
Press
MSL
hPa
Rain since
9am
mm
Dir  Spd
km/h
Gust
km/h
Spd
kts
Gust
kts
25/11:30pm 15.7 13.2 5.0 49 5.3 NE 7 9 4 5 1022.9 1021.5 0.0
25/11:00pm 15.1 13.6 6.7 57 4.2 NE 4 7 2 4 1022.9 1021.5 0.0
25/10:30pm 15.3 13.1 5.5 52 4.8 NE 6 9 3 5 1023.0 1021.6 0.0
25/10:00pm 15.4 12.6 5.0 50 5.1 NE 9 11 5 6 1023.0 1021.6 0.0
25/09:30pm 15.7 12.2 5.3 50 5.1 ESE 13 17 7 9 1023.0 1021.6 0.0
25/09:00pm 15.8 11.5 5.4 50 5.1 SE 17 20 9 11 1022.5 1021.1 0.0
25/08:30pm 15.0 12.4 6.0 55 4.5 ESE 9 11 5 6 1022.2 1020.8 0.0
25/08:00pm 15.4 12.4 6.2 54 4.6 E 11 13 6 7 1022.0 1020.6 0.0
25/07:30pm 15.9 14.0 7.4 57 4.4 E 7 9 4 5 1021.6 1020.1 0.0
25/07:00pm 17.3 15.2 6.8 50 5.4 E 7 9 4 5 1021.5 1020.0 0.0
25/06:30pm 18.5 16.4 6.0 44 6.4 E 6 7 3 4 1021.1 1019.7 0.0
25/06:00pm 19.1 16.8 5.9 42 6.7 E 7 9 4 5 1020.9 1019.5 0.0
25/05:30pm 19.5 17.1 5.2 39 7.2 E 7 9 4 5 1020.5 1019.1 0.0
25/05:00pm 19.6 17.1 4.5 37 7.5 ESE 7 11 4 6 1020.4 1019.0 0.0
25/04:30pm 19.8 17.3 4.7 37 7.6 E 7 9 4 5 1020.6 1019.2 0.0
25/04:00pm 19.9 17.0 4.4 36 7.7 ENE 9 15 5 8 1020.3 1018.8 0.0
25/03:30pm 19.6 16.5 3.7 35 7.8 ENE 9 13 5 7 1020.0 1018.5 0.0
25/03:00pm 19.5 16.1 4.0 36 7.6 ESE 11 17 6 9 1020.1 1018.6 0.0
25/02:30pm 19.7 16.3 4.2 36 7.7 E 11 17 6 9 1020.1 1018.6 0.0
25/02:00pm 19.6 16.6 4.1 36 7.7 ENE 9 17 5 9 1020.3 1018.8 0.0
25/01:30pm 19.1 15.2 3.3 35 7.7 NE 13 20 7 11 1020.4 1019.0 0.0
25/01:00pm 18.7 14.8 3.3 36 7.4 ENE 13 20 7 11 1020.9 1019.5 0.0
25/12:30pm 18.1 14.5 2.8 36 7.3 E 11 20 6 11 1021.6 1020.1 0.0
25/12:00pm 17.5 13.0 1.9 35 7.3 E 15 22 8 12 1022.1 1020.7 0.0
25/11:30am 16.8 11.9 1.7 36 7.0 ENE 17 26 9 14 1022.6 1021.2 0.0
25/11:00am 16.5 11.2 1.8 37 6.8 E 19 24 10 13 1023.1 1021.7 0.0
25/10:30am 15.4 10.5 1.9 40 6.2 E 17 26 9 14 1023.6 1022.2 0.0
25/10:00am 14.9 9.6 1.8 41 6.0 E 19 24 10 13 1023.7 1022.3 0.0
25/09:30am 14.3 8.9 2.2 44 5.5 E 20 28 11 15 1023.9 1022.5 0.0
25/09:00am 13.4 7.9 2.0 46 5.1 E 20 30 11 16 1023.7 1022.3 0.6
25/08:30am 12.6 7.1 1.6 47 4.9 E 20 28 11 15 1023.5 1022.1 0.6
25/08:00am 12.1 7.4 3.1 54 4.1 E 17 22 9 12 1023.0 1021.6 0.6
25/07:30am 11.6 7.9 4.6 62 3.3 ENE 13 17 7 9 1022.9 1021.5 0.6
25/07:00am 10.9 8.4 4.8 66 2.9 ENE 7 9 4 5 1022.6 1021.2 0.6
25/06:30am 10.3 8.3 6.3 76 1.9 E 6 7 3 4 1022.3 1020.9 0.6
25/06:00am 10.3 8.3 6.3 76 1.9 E 6 7 3 4 1022.1 1020.7 0.6
25/05:30am 10.9 8.6 5.7 70 2.5 E 7 7 4 4 1021.8 1020.4 0.6
25/05:00am 11.2 9.1 5.7 69 2.6 E 6 9 3 5 1021.5 1020.0 0.6
25/04:30am 10.8 10.2 7.5 80 1.6 CALM 0 0 0 0 1021.5 1020.0 0.6
25/04:00am 10.9 10.2 7.0 77 1.9 CALM 0 0 0 0 1021.4 1019.9 0.6
25/03:30am 11.3 10.9 8.2 81 1.6 CALM 0 0 0 0 1021.3 1019.8 0.6
25/03:00am 11.4 11.0 8.3 81 1.6 CALM 0 0 0 0 1021.7 1020.3 0.6
25/02:30am 11.7 11.1 7.6 76 2.1 CALM 0 4 0 2 1021.7 1020.3 0.6
25/02:00am 12.0 10.2 7.1 72 2.4 E 6 11 3 6 1021.7 1020.3 0.6
25/01:30am 12.0 11.7 8.8 81 1.7 CALM 0 0 0 0 1022.1 1020.7 0.6
25/01:00am 12.2 12.0 8.9 80 1.7 CALM 0 0 0 0 1022.2 1020.8 0.6
25/12:30am 12.0 12.0 9.9 87 1.1 CALM 0 0 0 0 1022.3 1020.9 0.6
25/12:00am 12.2 12.0 9.0 81 1.7 CALM 0 0 0 0 1022.4 1021.0 0.6
 
Date/Time
WST
Temp
°C
App
Temp
°C
Dew
Point
°C
Rel
Hum
%
Delta-T
°C
Wind Press
QNH
hPa
Press
MSL
hPa
Rain since
9am
mm
Dir  Spd
km/h
Gust
km/h
Spd
kts
Gust
kts
24/11:30pm 12.3 10.7 8.2 76 2.1 E 6 7 3 4 1022.5 1021.1 0.6
24/11:00pm 12.0 11.3 10.1 88 1.0 E 4 7 2 4 1022.5 1021.1 0.6
24/10:30pm 11.6 11.7 10.0 90 0.8 CALM 0 0 0 0 1023.2 1021.8 0.6
24/10:00pm 12.2 12.3 10.1 87 1.1 CALM 0 0 0 0 1023.0 1021.6 0.6
24/09:30pm 12.7 12.8 10.1 84 1.4 CALM 0 0 0 0 1023.0 1021.6 0.6
24/09:00pm 12.9 12.8 9.4 79 1.8 CALM 0 0 0 0 1023.5 1022.1 0.6
24/08:30pm 12.9 11.5 9.0 77 2.0 E 6 7 3 4 1023.2 1021.8 0.6
24/08:00pm 13.0 11.6 9.4 79 1.9 E 7 9 4 5 1023.3 1021.9 0.6
24/07:30pm 12.9 11.9 9.0 77 2.0 E 4 6 2 3 1023.2 1021.8 0.6
24/07:00pm 12.9 11.5 9.4 79 1.8 E 7 11 4 6 1022.6 1021.2 0.6
24/06:30pm 12.7 11.3 9.0 78 1.9 NNE 6 9 3 5 1022.3 1020.9 0.6
24/06:00pm 12.5 10.7 9.5 82 1.6 NNE 9 13 5 7 1022.0 1020.6 0.6
24/05:30pm 12.8 11.4 9.6 81 1.7 ENE 7 9 4 5 1021.7 1020.3 0.6
24/05:00pm 13.2 11.7 9.1 76 2.1 E 7 9 4 5 1021.6 1020.1 0.4
24/04:30pm 14.0 11.1 8.0 67 3.1 ENE 13 17 7 9 1021.4 1019.9 0.2
24/04:00pm 14.2 10.9 7.9 66 3.2 E 15 19 8 10 1021.1 1019.7 0.2
24/03:30pm 14.4 10.9 7.2 62 3.7 ENE 15 19 8 10 1021.1 1019.7 0.2
24/03:00pm 14.4 10.1 7.0 61 3.7 E 19 24 10 13 1020.9 1019.5 0.2
24/02:30pm 14.6 11.1 7.4 62 3.7 E 15 22 8 12 1021.3 1019.8 0.2
24/02:00pm 14.3 10.5 7.4 63 3.5 ENE 17 24 9 13 1021.1 1019.7 0.2
24/01:30pm 14.4 10.8 6.7 60 3.9 ENE 15 20 8 11 1021.6 1020.1 0.2
24/01:00pm 14.5 11.0 7.3 62 3.7 E 15 20 8 11 1021.9 1020.5 0.2
24/12:30pm 13.9 10.6 7.9 67 3.1 E 15 20 8 11 1022.3 1020.9 0.0
24/12:00pm 14.2 10.4 7.5 64 3.4 E 17 24 9 13 1022.7 1021.3 0.0
24/11:30am 13.5 9.2 6.8 64 3.4 E 19 24 10 13 1022.9 1021.5 0.0
24/11:00am 13.6 9.1 6.9 64 3.4 E 20 26 11 14 1023.3 1021.9 0.0
24/10:30am 14.0 9.7 6.8 62 3.6 E 19 26 10 14 1023.7 1022.3 0.0
24/10:00am 13.4 9.2 7.6 68 2.9 E 19 24 10 13 1023.8 1022.4 0.0
24/09:30am 13.2 8.2 6.3 63 3.4 E 22 30 12 16 1023.9 1022.5 0.0
24/09:00am 13.0 7.2 6.4 64 3.3 E 26 33 14 18 1023.7 1022.3 1.0
24/08:30am 12.6 7.9 6.2 65 3.2 E 20 28 11 15 1023.5 1022.1 1.0
24/08:00am 12.2 7.8 6.5 68 2.8 ESE 19 30 10 16 1023.1 1021.7 1.0
24/07:30am 11.7 7.8 7.0 73 2.3 ESE 17 24 9 13 1022.4 1021.0 1.0
24/07:00am 11.5 7.7 7.4 76 2.0 ESE 17 22 9 12 1022.1 1020.7 1.0
24/06:30am 11.6 7.3 6.9 73 2.3 ESE 19 24 10 13 1022.0 1020.6 1.0
24/06:00am 11.7 8.3 7.8 77 2.0 ESE 15 20 8 11 1021.7 1020.3 1.0
24/05:30am 11.7 8.5 8.4 80 1.7 ESE 15 22 8 12 1021.6 1020.1 1.0
24/05:00am 11.4 7.9 8.8 84 1.3 ESE 17 20 9 11 1021.3 1019.8 1.0
24/04:30am 11.5 8.4 8.9 84 1.3 ESE 15 19 8 10 1021.3 1019.8 1.0
24/04:00am 11.7 8.3 9.3 85 1.2 ESE 17 22 9 12 1020.7 1019.3 1.0
24/03:30am 12.0 9.0 9.2 83 1.5 ESE 15 20 8 11 1021.0 1019.6 1.0
24/03:00am 12.1 9.9 9.5 84 1.4 SE 11 15 6 8 1020.9 1019.5 1.0
24/02:30am 12.1 10.0 9.7 85 1.3 E 11 17 6 9 1020.5 1019.1 1.0
24/02:00am 12.3 10.9 9.7 84 1.4 ESE 7 13 4 7 1021.1 1019.7 1.0
24/01:30am 12.2 10.5 9.8 85 1.3 ESE 9 13 5 7 1020.8 1019.4 1.0
24/01:00am 12.1 10.7 9.5 84 1.4 ESE 7 11 4 6 1020.9 1019.5 1.0
24/12:30am 12.2 10.5 9.8 85 1.3 ESE 9 13 5 7 1021.1 1019.7 1.0
24/12:00am 12.1 10.0 9.7 85 1.3 E 11 17 6 9 1021.3 1019.8 1.0
 
Date/Time
WST
Temp
°C
App
Temp
°C
Dew
Point
°C
Rel
Hum
%
Delta-T
°C
Wind Press
QNH
hPa
Press
MSL
hPa
Rain since
9am
mm
Dir  Spd
km/h
Gust
km/h
Spd
kts
Gust
kts
23/11:30pm 12.4 9.5 9.8 84 1.4 ESE 15 20 8 11 1021.3 1019.8 1.0
23/11:00pm 12.4 10.8 10.3 87 1.1 NE 9 11 5 6 1021.9 1020.5 1.0
23/10:45pm 12.2 10.9 10.1 87 1.1 N 7 9 4 5 1022.0 1020.6 1.0
23/10:30pm 12.2 10.6 10.3 88 1.0 NE 9 13 5 7 1022.1 1020.7 1.0
23/10:05pm 12.3 9.6 10.2 87 1.1 ESE 15 20 8 11 1021.6 1020.1 1.0
23/10:00pm 12.3 9.6 10.2 87 1.1 SE 15 19 8 10 1021.8 1020.4 1.0
23/09:35pm 12.4 9.8 10.6 89 1.0 ESE 15 20 8 11 1021.3 1019.8 1.0

Other Formats:

Comma delimited format used in spreadsheet applications
http://www.bom.gov.au/fwo/IDW60801/IDW60801.99312.axf

JavaScript Object Notation format (JSON) in row-major order
http://www.bom.gov.au/fwo/IDW60801/IDW60801.99312.json